sensor_id;sensor_type;location;lat;lon;timestamp;temperature;humidity
56436;DHT22;42335;44.872;20.658;2022-09-09T00:04:19;589.10;2432.00
56436;DHT22;42335;44.872;20.658;2022-09-09T00:07:15;589.10;2432.00
56436;DHT22;42335;44.872;20.658;2022-09-09T00:15:43;589.00;2432.00
56436;DHT22;42335;44.872;20.658;2022-09-09T00:21:06;589.10;2432.00
56436;DHT22;42335;44.872;20.658;2022-09-09T00:31:20;589.10;2432.00
56436;DHT22;42335;44.872;20.658;2022-09-09T00:33:48;589.10;2432.00
56436;DHT22;42335;44.872;20.658;2022-09-09T00:36:18;589.20;2432.00
56436;DHT22;42335;44.872;20.658;2022-09-09T00:38:57;589.10;2432.00
56436;DHT22;42335;44.872;20.658;2022-09-09T00:42:04;589.00;2432.00
56436;DHT22;42335;44.872;20.658;2022-09-09T00:44:37;589.10;2432.00
56436;DHT22;42335;44.872;20.658;2022-09-09T00:47:32;589.00;2432.00
56436;DHT22;42335;44.872;20.658;2022-09-09T00:52:58;589.00;2432.00
56436;DHT22;42335;44.872;20.658;2022-09-09T00:55:44;589.00;2432.00
56436;DHT22;42335;44.872;20.658;2022-09-09T00:58:10;588.90;2432.00
56436;DHT22;42335;44.872;20.658;2022-09-09T01:00:52;588.90;2432.00
56436;DHT22;42335;44.872;20.658;2022-09-09T01:05:53;564.10;2432.00
56436;DHT22;42335;44.872;20.658;2022-09-09T02:46:57;563.80;2432.00
56436;DHT22;42335;44.872;20.658;2022-09-09T02:52:09;563.30;2432.00
56436;DHT22;42335;44.872;20.658;2022-09-09T02:54:41;563.40;2432.00
56436;DHT22;42335;44.872;20.658;2022-09-09T02:57:23;563.30;2432.00
56436;DHT22;42335;44.872;20.658;2022-09-09T02:59:51;563.30;2432.00
56436;DHT22;42335;44.872;20.658;2022-09-09T03:02:17;563.20;2432.00
56436;DHT22;42335;44.872;20.658;2022-09-09T03:04:44;538.50;2406.40
56436;DHT22;42335;44.872;20.658;2022-09-09T03:07:10;538.40;2406.40
56436;DHT22;42335;44.872;20.658;2022-09-09T03:09:36;538.40;2406.40
56436;DHT22;42335;44.872;20.658;2022-09-09T03:12:02;538.30;2406.40
56436;DHT22;42335;44.872;20.658;2022-09-09T03:14:29;538.30;2406.40
56436;DHT22;42335;44.872;20.658;2022-09-09T03:16:56;538.30;2406.40
56436;DHT22;42335;44.872;20.658;2022-09-09T03:19:23;538.40;2406.40
56436;DHT22;42335;44.872;20.658;2022-09-09T03:21:49;538.50;2406.40
56436;DHT22;42335;44.872;20.658;2022-09-09T03:24:15;538.50;2406.40
56436;DHT22;42335;44.872;20.658;2022-09-09T03:26:41;538.50;2406.40
56436;DHT22;42335;44.872;20.658;2022-09-09T03:29:10;538.50;2406.40
56436;DHT22;42335;44.872;20.658;2022-09-09T03:31:38;563.20;2432.00
56436;DHT22;42335;44.872;20.658;2022-09-09T03:34:04;563.30;2432.00
56436;DHT22;42335;44.872;20.658;2022-09-09T03:36:30;563.30;2432.00
56436;DHT22;42335;44.872;20.658;2022-09-09T03:38:56;563.40;2432.00
56436;DHT22;42335;44.872;20.658;2022-09-09T03:41:22;563.40;2432.00
56436;DHT22;42335;44.872;20.658;2022-09-09T03:43:52;563.40;2432.00
56436;DHT22;42335;44.872;20.658;2022-09-09T03:46:20;563.40;2432.00
56436;DHT22;42335;44.872;20.658;2022-09-09T03:48:46;563.40;2432.00
56436;DHT22;42335;44.872;20.658;2022-09-09T03:51:12;563.40;2432.00
56436;DHT22;42335;44.872;20.658;2022-09-09T03:53:38;563.40;2432.00
56436;DHT22;42335;44.872;20.658;2022-09-09T03:56:05;563.30;2432.00
56436;DHT22;42335;44.872;20.658;2022-09-09T03:58:33;563.30;2432.00
56436;DHT22;42335;44.872;20.658;2022-09-09T04:01:11;563.40;2432.00
56436;DHT22;42335;44.872;20.658;2022-09-09T04:03:40;563.50;2432.00
56436;DHT22;42335;44.872;20.658;2022-09-09T04:06:08;563.50;2432.00
56436;DHT22;42335;44.872;20.658;2022-09-09T04:08:34;563.50;2432.00
56436;DHT22;42335;44.872;20.658;2022-09-09T04:11:01;563.50;2432.00
56436;DHT22;42335;44.872;20.658;2022-09-09T04:13:32;563.50;2432.00
56436;DHT22;42335;44.872;20.658;2022-09-09T04:15:59;563.50;2432.00
56436;DHT22;42335;44.872;20.658;2022-09-09T04:18:26;563.50;2432.00
56436;DHT22;42335;44.872;20.658;2022-09-09T04:20:54;563.60;2432.00
56436;DHT22;42335;44.872;20.658;2022-09-09T04:23:20;563.50;2432.00
56436;DHT22;42335;44.872;20.658;2022-09-09T04:25:51;563.50;2432.00
56436;DHT22;42335;44.872;20.658;2022-09-09T04:28:18;563.50;2432.00
56436;DHT22;42335;44.872;20.658;2022-09-09T04:30:45;563.60;2432.00
56436;DHT22;42335;44.872;20.658;2022-09-09T04:33:12;563.60;2432.00
56436;DHT22;42335;44.872;20.658;2022-09-09T04:35:38;563.60;2432.00
56436;DHT22;42335;44.872;20.658;2022-09-09T04:38:05;563.60;2432.00
56436;DHT22;42335;44.872;20.658;2022-09-09T04:40:33;563.70;2432.00
56436;DHT22;42335;44.872;20.658;2022-09-09T04:42:59;563.70;2432.00
56436;DHT22;42335;44.872;20.658;2022-09-09T04:45:25;563.70;2432.00
56436;DHT22;42335;44.872;20.658;2022-09-09T04:47:52;563.70;2432.00
56436;DHT22;42335;44.872;20.658;2022-09-09T04:50:18;563.70;2432.00
56436;DHT22;42335;44.872;20.658;2022-09-09T04:52:44;563.70;2432.00
56436;DHT22;42335;44.872;20.658;2022-09-09T04:55:10;563.70;2432.00
56436;DHT22;42335;44.872;20.658;2022-09-09T04:57:38;563.70;2432.00
56436;DHT22;42335;44.872;20.658;2022-09-09T05:00:05;563.70;2432.00
56436;DHT22;42335;44.872;20.658;2022-09-09T05:02:30;563.60;2432.00
56436;DHT22;42335;44.872;20.658;2022-09-09T05:04:57;563.60;2432.00
56436;DHT22;42335;44.872;20.658;2022-09-09T05:07:23;563.60;2432.00
56436;DHT22;42335;44.872;20.658;2022-09-09T05:09:49;563.60;2432.00
56436;DHT22;42335;44.872;20.658;2022-09-09T05:12:15;563.70;2432.00
56436;DHT22;42335;44.872;20.658;2022-09-09T05:14:43;563.70;2432.00
56436;DHT22;42335;44.872;20.658;2022-09-09T05:17:09;563.60;2432.00
56436;DHT22;42335;44.872;20.658;2022-09-09T05:19:34;563.60;2432.00
56436;DHT22;42335;44.872;20.658;2022-09-09T05:22:00;563.70;2432.00
56436;DHT22;42335;44.872;20.658;2022-09-09T05:24:26;563.80;2432.00
56436;DHT22;42335;44.872;20.658;2022-09-09T05:26:52;563.70;2432.00
56436;DHT22;42335;44.872;20.658;2022-09-09T05:29:18;563.70;2432.00
56436;DHT22;42335;44.872;20.658;2022-09-09T05:31:46;563.60;2432.00
56436;DHT22;42335;44.872;20.658;2022-09-09T05:34:15;563.70;2432.00
56436;DHT22;42335;44.872;20.658;2022-09-09T05:36:40;563.70;2432.00
56436;DHT22;42335;44.872;20.658;2022-09-09T05:39:06;563.70;2432.00
56436;DHT22;42335;44.872;20.658;2022-09-09T05:41:32;563.80;2432.00
56436;DHT22;42335;44.872;20.658;2022-09-09T05:43:58;563.80;2432.00
56436;DHT22;42335;44.872;20.658;2022-09-09T05:46:26;563.90;2432.00
56436;DHT22;42335;44.872;20.658;2022-09-09T05:48:53;563.90;2432.00
56436;DHT22;42335;44.872;20.658;2022-09-09T05:51:21;564.10;2432.00
56436;DHT22;42335;44.872;20.658;2022-09-09T05:53:48;564.10;2432.00
56436;DHT22;42335;44.872;20.658;2022-09-09T05:56:21;588.90;2432.00
56436;DHT22;42335;44.872;20.658;2022-09-09T05:58:48;564.10;2432.00
56436;DHT22;42335;44.872;20.658;2022-09-09T06:01:18;588.80;2432.00
56436;DHT22;42335;44.872;20.658;2022-09-09T06:03:46;588.90;2432.00
56436;DHT22;42335;44.872;20.658;2022-09-09T06:06:17;589.00;2432.00
56436;DHT22;42335;44.872;20.658;2022-09-09T06:08:44;589.10;2432.00
56436;DHT22;42335;44.872;20.658;2022-09-09T06:11:11;589.20;2432.00
56436;DHT22;42335;44.872;20.658;2022-09-09T06:13:38;589.30;2432.00
56436;DHT22;42335;44.872;20.658;2022-09-09T06:16:06;589.40;2432.00
56436;DHT22;42335;44.872;20.658;2022-09-09T06:18:33;589.60;2432.00
56436;DHT22;42335;44.872;20.658;2022-09-09T06:21:03;589.70;2432.00
56436;DHT22;42335;44.872;20.658;2022-09-09T06:23:30;614.50;2432.00
56436;DHT22;42335;44.872;20.658;2022-09-09T06:26:08;614.40;2432.00
56436;DHT22;42335;44.872;20.658;2022-09-09T06:28:35;614.50;2432.00
56436;DHT22;42335;44.872;20.658;2022-09-09T06:31:04;614.70;2432.00
56436;DHT22;42335;44.872;20.658;2022-09-09T06:33:35;614.40;2432.00
56436;DHT22;42335;44.872;20.658;2022-09-09T06:36:03;614.50;2432.00
56436;DHT22;42335;44.872;20.658;2022-09-09T06:38:31;614.40;2432.00
56436;DHT22;42335;44.872;20.658;2022-09-09T06:40:59;614.40;2432.00
56436;DHT22;42335;44.872;20.658;2022-09-09T06:43:26;589.70;2432.00
56436;DHT22;42335;44.872;20.658;2022-09-09T06:46:00;589.70;2432.00
56436;DHT22;42335;44.872;20.658;2022-09-09T06:48:26;589.60;2432.00
56436;DHT22;42335;44.872;20.658;2022-09-09T06:53:32;589.60;2432.00
56436;DHT22;42335;44.872;20.658;2022-09-09T06:56:02;589.60;2432.00
56436;DHT22;42335;44.872;20.658;2022-09-09T06:58:28;589.50;2432.00
56436;DHT22;42335;44.872;20.658;2022-09-09T07:01:05;589.50;2432.00
56436;DHT22;42335;44.872;20.658;2022-09-09T07:03:31;589.40;2432.00
56436;DHT22;42335;44.872;20.658;2022-09-09T07:05:57;589.30;2432.00
56436;DHT22;42335;44.872;20.658;2022-09-09T07:08:23;589.30;2432.00
56436;DHT22;42335;44.872;20.658;2022-09-09T07:10:51;589.30;2432.00
56436;DHT22;42335;44.872;20.658;2022-09-09T07:13:25;589.20;2432.00
56436;DHT22;42335;44.872;20.658;2022-09-09T07:15:52;589.30;2432.00
56436;DHT22;42335;44.872;20.658;2022-09-09T07:18:18;589.30;2432.00
56436;DHT22;42335;44.872;20.658;2022-09-09T07:20:53;589.30;2432.00
56436;DHT22;42335;44.872;20.658;2022-09-09T07:23:20;589.30;2432.00
56436;DHT22;42335;44.872;20.658;2022-09-09T07:25:45;589.30;2432.00
56436;DHT22;42335;44.872;20.658;2022-09-09T07:28:11;589.30;2432.00
56436;DHT22;42335;44.872;20.658;2022-09-09T07:30:37;589.30;2432.00
56436;DHT22;42335;44.872;20.658;2022-09-09T07:33:02;589.40;2432.00
56436;DHT22;42335;44.872;20.658;2022-09-09T07:35:29;589.50;2432.00
56436;DHT22;42335;44.872;20.658;2022-09-09T07:37:54;589.70;2432.00
56436;DHT22;42335;44.872;20.658;2022-09-09T07:40:20;589.70;2432.00
56436;DHT22;42335;44.872;20.658;2022-09-09T07:42:47;614.50;2432.00
56436;DHT22;42335;44.872;20.658;2022-09-09T07:45:13;614.70;2432.00
56436;DHT22;42335;44.872;20.658;2022-09-09T07:47:40;614.80;2432.00
56436;DHT22;42335;44.872;20.658;2022-09-09T07:50:08;615.00;2432.00
56436;DHT22;42335;44.872;20.658;2022-09-09T07:52:34;615.20;2432.00
56436;DHT22;42335;44.872;20.658;2022-09-09T07:55:00;615.30;2432.00
56436;DHT22;42335;44.872;20.658;2022-09-09T07:59:56;640.70;2432.00
56436;DHT22;42335;44.872;20.658;2022-09-09T08:02:25;640.70;2432.00
56436;DHT22;42335;44.872;20.658;2022-09-09T08:04:53;640.70;2432.00
56436;DHT22;42335;44.872;20.658;2022-09-09T08:07:19;640.70;2432.00
56436;DHT22;42335;44.872;20.658;2022-09-09T08:09:46;640.80;2432.00
56436;DHT22;42335;44.872;20.658;2022-09-09T08:12:12;640.80;2432.00
56436;DHT22;42335;44.872;20.658;2022-09-09T08:14:38;640.70;2432.00
56436;DHT22;42335;44.872;20.658;2022-09-09T08:17:05;640.70;2432.00
56436;DHT22;42335;44.872;20.658;2022-09-09T08:19:31;640.70;2432.00
56436;DHT22;42335;44.872;20.658;2022-09-09T08:22:01;640.70;2432.00
56436;DHT22;42335;44.872;20.658;2022-09-09T08:24:28;640.60;2432.00
56436;DHT22;42335;44.872;20.658;2022-09-09T08:26:53;640.60;2432.00
56436;DHT22;42335;44.872;20.658;2022-09-09T08:29:19;640.60;2432.00
56436;DHT22;42335;44.872;20.658;2022-09-09T08:31:46;640.80;2432.00
56436;DHT22;42335;44.872;20.658;2022-09-09T08:34:13;665.70;2432.00
56436;DHT22;42335;44.872;20.658;2022-09-09T08:36:43;665.90;2432.00
56436;DHT22;42335;44.872;20.658;2022-09-09T08:55:01;691.70;2432.00
56436;DHT22;42335;44.872;20.658;2022-09-09T08:57:30;691.70;2432.00
56436;DHT22;42335;44.872;20.658;2022-09-09T08:59:58;691.60;2432.00
56436;DHT22;42335;44.872;20.658;2022-09-09T09:02:27;691.60;2432.00
56436;DHT22;42335;44.872;20.658;2022-09-09T09:05:09;691.60;2432.00
56436;DHT22;42335;44.872;20.658;2022-09-09T09:12:44;716.90;2432.00
56436;DHT22;42335;44.872;20.658;2022-09-09T09:15:26;717.70;2432.00
56436;DHT22;42335;44.872;20.658;2022-09-09T09:17:54;743.10;2432.00
56436;DHT22;42335;44.872;20.658;2022-09-09T09:20:26;743.10;2432.00
56436;DHT22;42335;44.872;20.658;2022-09-09T09:22:59;768.60;2432.00
56436;DHT22;42335;44.872;20.658;2022-09-09T09:25:35;768.60;2432.00
56436;DHT22;42335;44.872;20.658;2022-09-09T09:30:41;768.60;2432.00
56436;DHT22;42335;44.872;20.658;2022-09-09T09:33:27;768.60;2432.00
56436;DHT22;42335;44.872;20.658;2022-09-09T09:35:54;794.00;2432.00
56436;DHT22;42335;44.872;20.658;2022-09-09T09:38:26;793.80;2432.00
56436;DHT22;42335;44.872;20.658;2022-09-09T09:40:57;794.00;2432.00
56436;DHT22;42335;44.872;20.658;2022-09-09T09:43:34;819.20;2432.00
56436;DHT22;42335;44.872;20.658;2022-09-09T09:46:03;819.40;2432.00
56436;DHT22;42335;44.872;20.658;2022-09-09T09:48:29;819.80;2406.40
56436;DHT22;42335;44.872;20.658;2022-09-09T09:51:03;819.90;2278.40
56436;DHT22;42335;44.872;20.658;2022-09-09T09:53:34;844.80;2355.20
56436;DHT22;42335;44.872;20.658;2022-09-09T09:56:04;820.10;2304.00
56436;DHT22;42335;44.872;20.658;2022-09-09T10:24:53;794.40;2227.20
56436;DHT22;42335;44.872;20.658;2022-09-09T10:30:44;794.20;2176.00
56436;DHT22;42335;44.872;20.658;2022-09-09T10:33:42;794.00;2227.20
56436;DHT22;42335;44.872;20.658;2022-09-09T10:36:26;794.10;2201.60
56436;DHT22;42335;44.872;20.658;2022-09-09T10:39:05;794.10;2176.00
56436;DHT22;42335;44.872;20.658;2022-09-09T10:42:08;794.20;2176.00
56436;DHT22;42335;44.872;20.658;2022-09-09T10:50:23;794.30;2150.40
56436;DHT22;42335;44.872;20.658;2022-09-09T10:55:39;794.40;2176.00
56436;DHT22;42335;44.872;20.658;2022-09-09T10:58:09;794.50;2124.80
56436;DHT22;42335;44.872;20.658;2022-09-09T11:00:40;794.50;2124.80
56436;DHT22;42335;44.872;20.658;2022-09-09T11:03:18;794.50;2124.80
56436;DHT22;42335;44.872;20.658;2022-09-09T11:06:13;819.30;2124.80
56436;DHT22;42335;44.872;20.658;2022-09-09T11:08:40;819.60;2073.60
56436;DHT22;42335;44.872;20.658;2022-09-09T11:13:54;819.60;2073.60
56436;DHT22;42335;44.872;20.658;2022-09-09T11:16:29;819.60;2073.60
56436;DHT22;42335;44.872;20.658;2022-09-09T11:19:37;819.60;2073.60
56436;DHT22;42335;44.872;20.658;2022-09-09T11:25:30;819.60;2099.20
56436;DHT22;42335;44.872;20.658;2022-09-09T11:28:17;819.70;2099.20
56436;DHT22;42335;44.872;20.658;2022-09-09T11:42:26;819.60;1996.80
56436;DHT22;42335;44.872;20.658;2022-09-09T11:44:52;819.60;1945.60
56436;DHT22;42335;44.872;20.658;2022-09-09T11:47:30;819.60;1945.60
56436;DHT22;42335;44.872;20.658;2022-09-09T11:52:42;819.60;1945.60
56436;DHT22;42335;44.872;20.658;2022-09-09T11:55:32;819.60;1971.20
56436;DHT22;42335;44.872;20.658;2022-09-09T11:58:05;819.60;1920.00
56436;DHT22;42335;44.872;20.658;2022-09-09T12:00:44;819.70;1920.00
56436;DHT22;42335;44.872;20.658;2022-09-09T12:06:24;819.60;1894.40
56436;DHT22;42335;44.872;20.658;2022-09-09T12:08:53;819.50;1894.40
56436;DHT22;42335;44.872;20.658;2022-09-09T12:11:28;819.60;1945.60
56436;DHT22;42335;44.872;20.658;2022-09-09T12:13:57;819.70;1945.60
56436;DHT22;42335;44.872;20.658;2022-09-09T12:16:43;819.80;1894.40
56436;DHT22;42335;44.872;20.658;2022-09-09T12:24:41;819.90;1868.80
56436;DHT22;42335;44.872;20.658;2022-09-09T12:32:26;819.90;1843.20
56436;DHT22;42335;44.872;20.658;2022-09-09T12:34:55;819.80;1868.80
56436;DHT22;42335;44.872;20.658;2022-09-09T12:39:58;819.90;1817.60
56436;DHT22;42335;44.872;20.658;2022-09-09T12:44:53;845.20;1817.60
56436;DHT22;42335;44.872;20.658;2022-09-09T12:47:21;844.90;1792.00
56436;DHT22;42335;44.872;20.658;2022-09-09T12:49:48;844.90;1766.40
56436;DHT22;42335;44.872;20.658;2022-09-09T12:52:29;845.10;1792.00
56436;DHT22;42335;44.872;20.658;2022-09-09T12:54:59;845.10;1766.40
56436;DHT22;42335;44.872;20.658;2022-09-09T12:57:33;845.20;1766.40
56436;DHT22;42335;44.872;20.658;2022-09-09T13:00:12;845.20;1766.40
56436;DHT22;42335;44.872;20.658;2022-09-09T13:02:51;845.20;1740.80
56436;DHT22;42335;44.872;20.658;2022-09-09T13:05:33;845.00;1766.40
56436;DHT22;42335;44.872;20.658;2022-09-09T13:10:36;845.20;1766.40
56436;DHT22;42335;44.872;20.658;2022-09-09T13:45:28;844.90;1740.80
56436;DHT22;42335;44.872;20.658;2022-09-09T13:50:24;820.00;1740.80
56436;DHT22;42335;44.872;20.658;2022-09-09T13:52:52;819.90;1740.80
56436;DHT22;42335;44.872;20.658;2022-09-09T13:55:20;819.80;1766.40
56436;DHT22;42335;44.872;20.658;2022-09-09T13:57:54;819.90;1766.40
56436;DHT22;42335;44.872;20.658;2022-09-09T14:00:20;820.00;1740.80
56436;DHT22;42335;44.872;20.658;2022-09-09T14:02:47;820.10;1715.20
56436;DHT22;42335;44.872;20.658;2022-09-09T14:05:13;844.80;1689.60
56436;DHT22;42335;44.872;20.658;2022-09-09T14:07:42;844.80;1689.60
56436;DHT22;42335;44.872;20.658;2022-09-09T14:10:08;844.90;1689.60
56436;DHT22;42335;44.872;20.658;2022-09-09T14:12:34;844.80;1689.60
56436;DHT22;42335;44.872;20.658;2022-09-09T14:15:05;820.10;1664.00
56436;DHT22;42335;44.872;20.658;2022-09-09T14:17:31;820.10;1664.00
56436;DHT22;42335;44.872;20.658;2022-09-09T14:19:57;819.80;1689.60
56436;DHT22;42335;44.872;20.658;2022-09-09T14:22:23;819.70;1664.00
56436;DHT22;42335;44.872;20.658;2022-09-09T14:24:49;819.60;1664.00
56436;DHT22;42335;44.872;20.658;2022-09-09T14:27:16;819.60;1664.00
56436;DHT22;42335;44.872;20.658;2022-09-09T14:29:42;819.70;1638.40
56436;DHT22;42335;44.872;20.658;2022-09-09T14:32:10;819.80;1587.20
56436;DHT22;42335;44.872;20.658;2022-09-09T14:34:35;819.60;1612.80
56436;DHT22;42335;44.872;20.658;2022-09-09T14:37:01;819.70;1638.40
56436;DHT22;42335;44.872;20.658;2022-09-09T14:39:27;819.80;1638.40
56436;DHT22;42335;44.872;20.658;2022-09-09T14:41:53;819.80;1638.40
56436;DHT22;42335;44.872;20.658;2022-09-09T14:44:19;819.60;1664.00
56436;DHT22;42335;44.872;20.658;2022-09-09T14:46:45;819.60;1664.00
56436;DHT22;42335;44.872;20.658;2022-09-09T14:49:10;819.70;1638.40
56436;DHT22;42335;44.872;20.658;2022-09-09T14:51:37;819.60;1689.60
56436;DHT22;42335;44.872;20.658;2022-09-09T14:54:03;819.60;1664.00
56436;DHT22;42335;44.872;20.658;2022-09-09T14:56:30;819.60;1689.60
56436;DHT22;42335;44.872;20.658;2022-09-09T15:01:24;819.40;1664.00
56436;DHT22;42335;44.872;20.658;2022-09-09T15:03:57;819.40;1638.40
56436;DHT22;42335;44.872;20.658;2022-09-09T15:06:25;819.30;1664.00
56436;DHT22;42335;44.872;20.658;2022-09-09T15:08:52;819.20;1664.00
56436;DHT22;42335;44.872;20.658;2022-09-09T15:11:19;819.30;1689.60
56436;DHT22;42335;44.872;20.658;2022-09-09T15:13:46;819.30;1638.40
56436;DHT22;42335;44.872;20.658;2022-09-09T15:16:13;794.50;1638.40
56436;DHT22;42335;44.872;20.658;2022-09-09T15:18:39;794.50;1664.00
56436;DHT22;42335;44.872;20.658;2022-09-09T15:21:09;794.50;1638.40
56436;DHT22;42335;44.872;20.658;2022-09-09T15:55:23;793.60;1689.60
56436;DHT22;42335;44.872;20.658;2022-09-09T15:57:52;768.70;1664.00
56436;DHT22;42335;44.872;20.658;2022-09-09T16:00:18;768.60;1689.60
56436;DHT22;42335;44.872;20.658;2022-09-09T16:02:46;768.50;1715.20
56436;DHT22;42335;44.872;20.658;2022-09-09T16:44:16;742.90;1868.80
56436;DHT22;42335;44.872;20.658;2022-09-09T16:46:44;742.80;1868.80
56436;DHT22;42335;44.872;20.658;2022-09-09T17:31:02;716.90;2048.00
56436;DHT22;42335;44.872;20.658;2022-09-09T17:33:30;691.80;2048.00
56436;DHT22;42335;44.872;20.658;2022-09-09T17:36:00;691.80;2048.00
56436;DHT22;42335;44.872;20.658;2022-09-09T17:38:27;691.80;2048.00
56436;DHT22;42335;44.872;20.658;2022-09-09T17:43:40;691.70;2073.60
56436;DHT22;42335;44.872;20.658;2022-09-09T17:46:12;691.60;2099.20
56436;DHT22;42335;44.872;20.658;2022-09-09T18:08:31;691.40;2201.60
56436;DHT22;42335;44.872;20.658;2022-09-09T18:10:57;666.50;2201.60
56436;DHT22;42335;44.872;20.658;2022-09-09T18:13:23;666.50;2227.20
56436;DHT22;42335;44.872;20.658;2022-09-09T18:15:48;666.50;2227.20
56436;DHT22;42335;44.872;20.658;2022-09-09T18:18:14;666.50;2227.20
56436;DHT22;42335;44.872;20.658;2022-09-09T18:20:40;666.50;2227.20
56436;DHT22;42335;44.872;20.658;2022-09-09T18:23:06;666.50;2227.20
56436;DHT22;42335;44.872;20.658;2022-09-09T18:25:37;666.50;2227.20
56436;DHT22;42335;44.872;20.658;2022-09-09T18:28:03;666.40;2252.80
56436;DHT22;42335;44.872;20.658;2022-09-09T18:30:30;666.40;2252.80
56436;DHT22;42335;44.872;20.658;2022-09-09T18:32:56;666.20;2278.40
56436;DHT22;42335;44.872;20.658;2022-09-09T18:35:22;666.30;2278.40
56436;DHT22;42335;44.872;20.658;2022-09-09T18:37:48;666.30;2304.00
56436;DHT22;42335;44.872;20.658;2022-09-09T18:40:14;666.30;2304.00
56436;DHT22;42335;44.872;20.658;2022-09-09T18:42:39;666.30;2304.00
56436;DHT22;42335;44.872;20.658;2022-09-09T18:45:05;666.20;2329.60
56436;DHT22;42335;44.872;20.658;2022-09-09T18:47:31;666.00;2355.20
56436;DHT22;42335;44.872;20.658;2022-09-09T18:49:57;666.00;2355.20
56436;DHT22;42335;44.872;20.658;2022-09-09T18:52:23;666.00;2380.80
56436;DHT22;42335;44.872;20.658;2022-09-09T18:54:50;666.10;2380.80
56436;DHT22;42335;44.872;20.658;2022-09-09T18:57:16;666.00;2406.40
56436;DHT22;42335;44.872;20.658;2022-09-09T18:59:43;666.00;2406.40
56436;DHT22;42335;44.872;20.658;2022-09-09T19:02:08;665.90;2406.40
56436;DHT22;42335;44.872;20.658;2022-09-09T19:04:37;665.90;2432.00
56436;DHT22;42335;44.872;20.658;2022-09-09T19:07:03;666.00;2432.00
56436;DHT22;42335;44.872;20.658;2022-09-09T19:09:30;666.00;2432.00
56436;DHT22;42335;44.872;20.658;2022-09-09T19:11:58;666.00;2432.00
56436;DHT22;42335;44.872;20.658;2022-09-09T19:14:24;666.00;2432.00
56436;DHT22;42335;44.872;20.658;2022-09-09T19:16:50;666.00;2432.00
56436;DHT22;42335;44.872;20.658;2022-09-09T19:19:22;666.00;2432.00
56436;DHT22;42335;44.872;20.658;2022-09-09T19:21:48;666.00;2432.00
56436;DHT22;42335;44.872;20.658;2022-09-09T19:24:30;666.00;2432.00
56436;DHT22;42335;44.872;20.658;2022-09-09T19:27:00;666.00;2432.00
56436;DHT22;42335;44.872;20.658;2022-09-09T19:29:28;666.00;2432.00
56436;DHT22;42335;44.872;20.658;2022-09-09T19:31:56;665.90;2432.00
56436;DHT22;42335;44.872;20.658;2022-09-09T19:34:22;665.90;2432.00
56436;DHT22;42335;44.872;20.658;2022-09-09T19:36:48;665.90;2432.00
56436;DHT22;42335;44.872;20.658;2022-09-09T19:39:16;665.90;2432.00
56436;DHT22;42335;44.872;20.658;2022-09-09T19:41:43;665.80;2432.00
56436;DHT22;42335;44.872;20.658;2022-09-09T19:44:11;665.80;2432.00
56436;DHT22;42335;44.872;20.658;2022-09-09T19:46:38;665.70;2432.00
56436;DHT22;42335;44.872;20.658;2022-09-09T19:49:05;665.70;2432.00
56436;DHT22;42335;44.872;20.658;2022-09-09T19:51:31;665.60;2432.00
56436;DHT22;42335;44.872;20.658;2022-09-09T19:54:01;665.60;2432.00
56436;DHT22;42335;44.872;20.658;2022-09-09T19:56:31;665.60;2432.00
56436;DHT22;42335;44.872;20.658;2022-09-09T19:58:58;665.60;2432.00
56436;DHT22;42335;44.872;20.658;2022-09-09T20:01:26;665.60;2432.00
56436;DHT22;42335;44.872;20.658;2022-09-09T20:03:55;640.90;2432.00
56436;DHT22;42335;44.872;20.658;2022-09-09T20:06:24;640.90;2432.00
56436;DHT22;42335;44.872;20.658;2022-09-09T20:08:51;640.80;2432.00
56436;DHT22;42335;44.872;20.658;2022-09-09T20:11:18;640.70;2432.00
56436;DHT22;42335;44.872;20.658;2022-09-09T20:18:41;640.50;2432.00
56436;DHT22;42335;44.872;20.658;2022-09-09T20:21:16;640.50;2432.00
56436;DHT22;42335;44.872;20.658;2022-09-09T20:23:42;640.40;2432.00
56436;DHT22;42335;44.872;20.658;2022-09-09T20:26:11;640.30;2432.00
56436;DHT22;42335;44.872;20.658;2022-09-09T20:28:38;640.20;2432.00
56436;DHT22;42335;44.872;20.658;2022-09-09T20:33:32;640.10;2432.00
56436;DHT22;42335;44.872;20.658;2022-09-09T20:35:57;640.20;2432.00
56436;DHT22;42335;44.872;20.658;2022-09-09T20:38:31;640.00;2432.00
56436;DHT22;42335;44.872;20.658;2022-09-09T20:41:03;640.20;2432.00
56436;DHT22;42335;44.872;20.658;2022-09-09T20:43:30;615.30;2432.00
56436;DHT22;42335;44.872;20.658;2022-09-09T22:26:11;614.40;2432.00
56436;DHT22;42335;44.872;20.658;2022-09-09T22:28:36;589.50;2432.00
56436;DHT22;42335;44.872;20.658;2022-09-09T22:31:03;589.50;2432.00
56436;DHT22;42335;44.872;20.658;2022-09-09T22:33:29;589.50;2432.00
56436;DHT22;42335;44.872;20.658;2022-09-09T22:35:54;589.50;2432.00
56436;DHT22;42335;44.872;20.658;2022-09-09T22:38:20;589.60;2432.00
56436;DHT22;42335;44.872;20.658;2022-09-09T22:40:47;589.50;2432.00
56436;DHT22;42335;44.872;20.658;2022-09-09T22:43:18;589.50;2432.00
56436;DHT22;42335;44.872;20.658;2022-09-09T22:45:45;589.50;2432.00
56436;DHT22;42335;44.872;20.658;2022-09-09T22:48:12;589.40;2432.00
56436;DHT22;42335;44.872;20.658;2022-09-09T22:50:38;589.50;2432.00
56436;DHT22;42335;44.872;20.658;2022-09-09T22:53:04;589.40;2432.00
56436;DHT22;42335;44.872;20.658;2022-09-09T22:55:30;589.40;2432.00
56436;DHT22;42335;44.872;20.658;2022-09-09T22:57:57;589.40;2432.00
56436;DHT22;42335;44.872;20.658;2022-09-09T23:00:24;589.30;2432.00
56436;DHT22;42335;44.872;20.658;2022-09-09T23:02:50;589.30;2432.00
56436;DHT22;42335;44.872;20.658;2022-09-09T23:05:17;589.30;2432.00
56436;DHT22;42335;44.872;20.658;2022-09-09T23:07:45;589.40;2432.00
56436;DHT22;42335;44.872;20.658;2022-09-09T23:10:12;589.40;2432.00
56436;DHT22;42335;44.872;20.658;2022-09-09T23:12:38;589.40;2432.00
56436;DHT22;42335;44.872;20.658;2022-09-09T23:15:08;589.40;2432.00
56436;DHT22;42335;44.872;20.658;2022-09-09T23:17:36;589.30;2432.00
56436;DHT22;42335;44.872;20.658;2022-09-09T23:20:04;589.30;2432.00
56436;DHT22;42335;44.872;20.658;2022-09-09T23:22:30;589.40;2432.00